sensor_id;sensor_type;location;lat;lon;timestamp;P1;durP1;ratioP1;P2;durP2;ratioP2
23280;SDS011;11809;56.390;-3.266;2023-01-31T00:01:47;0.47;;;0.47;;
23280;SDS011;11809;56.390;-3.266;2023-01-31T00:04:13;0.40;;;0.40;;
23280;SDS011;11809;56.390;-3.266;2023-01-31T00:06:41;0.60;;;0.40;;
23280;SDS011;11809;56.390;-3.266;2023-01-31T00:09:10;0.80;;;0.50;;
23280;SDS011;11809;56.390;-3.266;2023-01-31T00:11:38;0.40;;;0.38;;
23280;SDS011;11809;56.390;-3.266;2023-01-31T00:14:05;0.93;;;0.40;;
23280;SDS011;11809;56.390;-3.266;2023-01-31T00:16:33;0.30;;;0.30;;
23280;SDS011;11809;56.390;-3.266;2023-01-31T00:19:00;1.45;;;0.52;;
23280;SDS011;11809;56.390;-3.266;2023-01-31T00:21:28;1.27;;;0.50;;
23280;SDS011;11809;56.390;-3.266;2023-01-31T00:23:57;1.00;;;0.30;;
23280;SDS011;11809;56.390;-3.266;2023-01-31T00:26:29;0.30;;;0.30;;
23280;SDS011;11809;56.390;-3.266;2023-01-31T00:28:58;0.75;;;0.40;;
23280;SDS011;11809;56.390;-3.266;2023-01-31T00:31:27;1.38;;;0.40;;
23280;SDS011;11809;56.390;-3.266;2023-01-31T00:33:56;0.32;;;0.30;;
23280;SDS011;11809;56.390;-3.266;2023-01-31T00:36:25;0.43;;;0.38;;
23280;SDS011;11809;56.390;-3.266;2023-01-31T00:38:54;0.80;;;0.40;;
23280;SDS011;11809;56.390;-3.266;2023-01-31T00:41:23;1.70;;;0.35;;
23280;SDS011;11809;56.390;-3.266;2023-01-31T00:43:51;1.50;;;0.40;;
23280;SDS011;11809;56.390;-3.266;2023-01-31T00:46:18;2.72;;;0.50;;
23280;SDS011;11809;56.390;-3.266;2023-01-31T00:48:46;0.50;;;0.30;;
23280;SDS011;11809;56.390;-3.266;2023-01-31T00:51:17;0.80;;;0.30;;
23280;SDS011;11809;56.390;-3.266;2023-01-31T00:53:46;1.42;;;0.28;;
23280;SDS011;11809;56.390;-3.266;2023-01-31T00:56:18;0.93;;;0.28;;
23280;SDS011;11809;56.390;-3.266;2023-01-31T00:58:49;0.90;;;0.20;;
23280;SDS011;11809;56.390;-3.266;2023-01-31T01:01:24;0.88;;;0.30;;
23280;SDS011;11809;56.390;-3.266;2023-01-31T01:03:53;0.40;;;0.20;;
23280;SDS011;11809;56.390;-3.266;2023-01-31T01:06:21;0.60;;;0.30;;
23280;SDS011;11809;56.390;-3.266;2023-01-31T01:08:48;0.60;;;0.20;;
23280;SDS011;11809;56.390;-3.266;2023-01-31T01:13:44;0.60;;;0.30;;
23280;SDS011;11809;56.390;-3.266;2023-01-31T01:16:15;0.30;;;0.20;;
23280;SDS011;11809;56.390;-3.266;2023-01-31T01:18:44;2.35;;;0.30;;
23280;SDS011;11809;56.390;-3.266;2023-01-31T01:21:15;0.98;;;0.50;;
23280;SDS011;11809;56.390;-3.266;2023-01-31T01:23:44;0.20;;;0.20;;
23280;SDS011;11809;56.390;-3.266;2023-01-31T01:26:24;0.95;;;0.20;;
23280;SDS011;11809;56.390;-3.266;2023-01-31T01:28:54;0.30;;;0.15;;
23280;SDS011;11809;56.390;-3.266;2023-01-31T01:31:23;0.95;;;0.20;;
23280;SDS011;11809;56.390;-3.266;2023-01-31T01:34:01;1.75;;;0.20;;
23280;SDS011;11809;56.390;-3.266;2023-01-31T01:36:31;0.22;;;0.20;;
23280;SDS011;11809;56.390;-3.266;2023-01-31T01:39:02;0.98;;;0.20;;
23280;SDS011;11809;56.390;-3.266;2023-01-31T01:41:30;0.20;;;0.20;;
23280;SDS011;11809;56.390;-3.266;2023-01-31T01:43:59;0.98;;;0.20;;
23280;SDS011;11809;56.390;-3.266;2023-01-31T01:49:16;0.80;;;0.20;;
23280;SDS011;11809;56.390;-3.266;2023-01-31T01:51:57;0.30;;;0.30;;
23280;SDS011;11809;56.390;-3.266;2023-01-31T01:54:27;0.22;;;0.20;;
23280;SDS011;11809;56.390;-3.266;2023-01-31T01:57:00;0.57;;;0.10;;
23280;SDS011;11809;56.390;-3.266;2023-01-31T01:59:32;0.20;;;0.20;;
23280;SDS011;11809;56.390;-3.266;2023-01-31T02:02:03;0.30;;;0.20;;
23280;SDS011;11809;56.390;-3.266;2023-01-31T02:04:32;3.00;;;0.20;;
23280;SDS011;11809;56.390;-3.266;2023-01-31T02:07:01;0.10;;;0.10;;
23280;SDS011;11809;56.390;-3.266;2023-01-31T02:09:41;0.57;;;0.20;;
23280;SDS011;11809;56.390;-3.266;2023-01-31T02:12:30;0.10;;;0.10;;
23280;SDS011;11809;56.390;-3.266;2023-01-31T02:14:59;0.40;;;0.20;;
23280;SDS011;11809;56.390;-3.266;2023-01-31T02:17:26;0.95;;;0.17;;
23280;SDS011;11809;56.390;-3.266;2023-01-31T02:53:34;1.13;;;0.10;;
23280;SDS011;11809;56.390;-3.266;2023-01-31T02:56:08;0.13;;;0.13;;
23280;SDS011;11809;56.390;-3.266;2023-01-31T03:01:40;0.98;;;0.20;;
23280;SDS011;11809;56.390;-3.266;2023-01-31T03:04:13;0.35;;;0.10;;
23280;SDS011;11809;56.390;-3.266;2023-01-31T03:07:00;2.72;;;0.28;;
23280;SDS011;11809;56.390;-3.266;2023-01-31T03:18:45;1.80;;;0.25;;
23280;SDS011;11809;56.390;-3.266;2023-01-31T03:21:29;0.20;;;0.20;;
23280;SDS011;11809;56.390;-3.266;2023-01-31T03:24:01;1.63;;;0.30;;
23280;SDS011;11809;56.390;-3.266;2023-01-31T03:26:32;0.83;;;0.30;;
23280;SDS011;11809;56.390;-3.266;2023-01-31T03:29:00;0.63;;;0.30;;
23280;SDS011;11809;56.390;-3.266;2023-01-31T03:31:31;1.55;;;0.30;;
23280;SDS011;11809;56.390;-3.266;2023-01-31T03:34:04;0.52;;;0.25;;
23280;SDS011;11809;56.390;-3.266;2023-01-31T03:42:16;1.90;;;0.35;;
23280;SDS011;11809;56.390;-3.266;2023-01-31T03:44:59;1.35;;;0.47;;
23280;SDS011;11809;56.390;-3.266;2023-01-31T03:47:42;0.50;;;0.30;;
23280;SDS011;11809;56.390;-3.266;2023-01-31T03:50:32;1.48;;;0.30;;
23280;SDS011;11809;56.390;-3.266;2023-01-31T03:53:14;0.93;;;0.45;;
23280;SDS011;11809;56.390;-3.266;2023-01-31T03:55:47;1.45;;;0.40;;
23280;SDS011;11809;56.390;-3.266;2023-01-31T03:58:21;1.92;;;0.40;;
23280;SDS011;11809;56.390;-3.266;2023-01-31T04:00:55;2.45;;;0.50;;
23280;SDS011;11809;56.390;-3.266;2023-01-31T04:03:41;3.30;;;0.70;;
23280;SDS011;11809;56.390;-3.266;2023-01-31T04:06:12;2.85;;;0.60;;
23280;SDS011;11809;56.390;-3.266;2023-01-31T04:08:39;4.70;;;0.90;;
23280;SDS011;11809;56.390;-3.266;2023-01-31T04:11:09;2.78;;;0.90;;
23280;SDS011;11809;56.390;-3.266;2023-01-31T04:16:06;3.03;;;0.70;;
23280;SDS011;11809;56.390;-3.266;2023-01-31T04:18:33;4.35;;;1.15;;
23280;SDS011;11809;56.390;-3.266;2023-01-31T04:21:03;4.38;;;0.85;;
23280;SDS011;11809;56.390;-3.266;2023-01-31T04:23:30;2.70;;;0.70;;
23280;SDS011;11809;56.390;-3.266;2023-01-31T04:25:57;3.47;;;0.90;;
23280;SDS011;11809;56.390;-3.266;2023-01-31T04:28:24;3.85;;;1.00;;
23280;SDS011;11809;56.390;-3.266;2023-01-31T04:30:55;3.20;;;1.08;;
23280;SDS011;11809;56.390;-3.266;2023-01-31T04:33:22;3.30;;;1.02;;
23280;SDS011;11809;56.390;-3.266;2023-01-31T04:35:50;2.83;;;0.95;;
23280;SDS011;11809;56.390;-3.266;2023-01-31T04:38:17;5.82;;;1.13;;
23280;SDS011;11809;56.390;-3.266;2023-01-31T04:40:44;5.93;;;1.15;;
23280;SDS011;11809;56.390;-3.266;2023-01-31T04:43:11;4.60;;;1.50;;
23280;SDS011;11809;56.390;-3.266;2023-01-31T04:45:38;4.03;;;0.90;;
23280;SDS011;11809;56.390;-3.266;2023-01-31T04:48:05;5.03;;;1.63;;
23280;SDS011;11809;56.390;-3.266;2023-01-31T04:50:32;5.18;;;1.40;;
23280;SDS011;11809;56.390;-3.266;2023-01-31T04:52:59;6.60;;;1.40;;
23280;SDS011;11809;56.390;-3.266;2023-01-31T04:55:26;4.22;;;1.20;;
23280;SDS011;11809;56.390;-3.266;2023-01-31T04:57:53;5.97;;;1.40;;
23280;SDS011;11809;56.390;-3.266;2023-01-31T05:00:20;4.00;;;1.27;;
23280;SDS011;11809;56.390;-3.266;2023-01-31T05:02:47;5.15;;;1.23;;
23280;SDS011;11809;56.390;-3.266;2023-01-31T05:05:15;6.68;;;1.70;;
23280;SDS011;11809;56.390;-3.266;2023-01-31T05:07:43;6.38;;;1.38;;
23280;SDS011;11809;56.390;-3.266;2023-01-31T05:10:10;3.40;;;1.77;;
23280;SDS011;11809;56.390;-3.266;2023-01-31T05:12:38;4.50;;;1.58;;
23280;SDS011;11809;56.390;-3.266;2023-01-31T05:15:05;5.72;;;1.65;;
23280;SDS011;11809;56.390;-3.266;2023-01-31T05:17:36;4.28;;;1.20;;
23280;SDS011;11809;56.390;-3.266;2023-01-31T05:20:04;4.53;;;1.70;;
23280;SDS011;11809;56.390;-3.266;2023-01-31T05:22:31;6.57;;;1.60;;
23280;SDS011;11809;56.390;-3.266;2023-01-31T05:24:59;4.63;;;1.52;;
23280;SDS011;11809;56.390;-3.266;2023-01-31T05:27:26;5.20;;;1.20;;
23280;SDS011;11809;56.390;-3.266;2023-01-31T05:29:53;4.70;;;1.30;;
23280;SDS011;11809;56.390;-3.266;2023-01-31T05:32:20;4.35;;;1.50;;
23280;SDS011;11809;56.390;-3.266;2023-01-31T05:34:47;6.47;;;1.80;;
23280;SDS011;11809;56.390;-3.266;2023-01-31T05:37:13;7.45;;;1.27;;
23280;SDS011;11809;56.390;-3.266;2023-01-31T05:39:40;3.65;;;1.38;;
23280;SDS011;11809;56.390;-3.266;2023-01-31T05:42:07;3.65;;;1.10;;
23280;SDS011;11809;56.390;-3.266;2023-01-31T05:44:34;5.13;;;1.58;;
23280;SDS011;11809;56.390;-3.266;2023-01-31T05:47:02;4.93;;;1.20;;
23280;SDS011;11809;56.390;-3.266;2023-01-31T05:49:29;3.00;;;0.98;;
23280;SDS011;11809;56.390;-3.266;2023-01-31T05:51:59;3.15;;;1.13;;
23280;SDS011;11809;56.390;-3.266;2023-01-31T05:54:27;3.42;;;1.27;;
23280;SDS011;11809;56.390;-3.266;2023-01-31T05:56:54;4.10;;;1.10;;
23280;SDS011;11809;56.390;-3.266;2023-01-31T05:59:21;4.57;;;1.10;;
23280;SDS011;11809;56.390;-3.266;2023-01-31T06:01:48;6.72;;;1.50;;
23280;SDS011;11809;56.390;-3.266;2023-01-31T06:04:15;4.05;;;1.27;;
23280;SDS011;11809;56.390;-3.266;2023-01-31T06:06:41;5.10;;;1.27;;
23280;SDS011;11809;56.390;-3.266;2023-01-31T06:09:10;5.32;;;1.17;;
23280;SDS011;11809;56.390;-3.266;2023-01-31T06:11:37;4.95;;;1.10;;
23280;SDS011;11809;56.390;-3.266;2023-01-31T06:14:04;5.68;;;1.25;;
23280;SDS011;11809;56.390;-3.266;2023-01-31T06:16:32;2.78;;;0.95;;
23280;SDS011;11809;56.390;-3.266;2023-01-31T06:18:58;7.32;;;1.20;;
23280;SDS011;11809;56.390;-3.266;2023-01-31T06:21:25;4.47;;;1.55;;
23280;SDS011;11809;56.390;-3.266;2023-01-31T06:23:53;13.85;;;1.60;;
23280;SDS011;11809;56.390;-3.266;2023-01-31T06:26:20;10.10;;;1.60;;
23280;SDS011;11809;56.390;-3.266;2023-01-31T06:28:47;4.82;;;1.65;;
23280;SDS011;11809;56.390;-3.266;2023-01-31T06:31:14;4.45;;;1.25;;
23280;SDS011;11809;56.390;-3.266;2023-01-31T06:33:41;3.67;;;1.10;;
23280;SDS011;11809;56.390;-3.266;2023-01-31T06:36:13;4.65;;;0.90;;
23280;SDS011;11809;56.390;-3.266;2023-01-31T06:41:14;5.63;;;1.08;;
23280;SDS011;11809;56.390;-3.266;2023-01-31T06:43:41;11.90;;;1.23;;
23280;SDS011;11809;56.390;-3.266;2023-01-31T06:46:08;7.25;;;2.42;;
23280;SDS011;11809;56.390;-3.266;2023-01-31T06:48:35;10.95;;;3.58;;
23280;SDS011;11809;56.390;-3.266;2023-01-31T06:51:02;6.05;;;1.80;;
23280;SDS011;11809;56.390;-3.266;2023-01-31T06:53:29;10.00;;;2.00;;
23280;SDS011;11809;56.390;-3.266;2023-01-31T06:55:56;12.80;;;2.40;;
23280;SDS011;11809;56.390;-3.266;2023-01-31T06:58:23;17.55;;;2.08;;
23280;SDS011;11809;56.390;-3.266;2023-01-31T07:00:50;6.75;;;1.38;;
23280;SDS011;11809;56.390;-3.266;2023-01-31T07:03:17;6.43;;;1.63;;
23280;SDS011;11809;56.390;-3.266;2023-01-31T07:05:45;11.20;;;1.85;;
23280;SDS011;11809;56.390;-3.266;2023-01-31T07:08:12;6.93;;;1.40;;
23280;SDS011;11809;56.390;-3.266;2023-01-31T07:10:40;8.30;;;1.83;;
23280;SDS011;11809;56.390;-3.266;2023-01-31T07:13:07;10.43;;;1.60;;
23280;SDS011;11809;56.390;-3.266;2023-01-31T07:15:34;12.88;;;1.92;;
23280;SDS011;11809;56.390;-3.266;2023-01-31T07:18:00;9.82;;;1.60;;
23280;SDS011;11809;56.390;-3.266;2023-01-31T07:20:28;13.25;;;2.03;;
23280;SDS011;11809;56.390;-3.266;2023-01-31T07:22:55;11.43;;;1.98;;
23280;SDS011;11809;56.390;-3.266;2023-01-31T07:25:24;8.73;;;1.50;;
23280;SDS011;11809;56.390;-3.266;2023-01-31T07:27:51;14.07;;;1.90;;
23280;SDS011;11809;56.390;-3.266;2023-01-31T07:30:18;7.93;;;1.23;;
23280;SDS011;11809;56.390;-3.266;2023-01-31T07:32:46;9.13;;;1.23;;
23280;SDS011;11809;56.390;-3.266;2023-01-31T07:35:13;6.78;;;1.27;;
23280;SDS011;11809;56.390;-3.266;2023-01-31T07:37:40;3.10;;;0.93;;
23280;SDS011;11809;56.390;-3.266;2023-01-31T07:40:09;7.78;;;1.40;;
23280;SDS011;11809;56.390;-3.266;2023-01-31T07:42:37;4.97;;;1.35;;
23280;SDS011;11809;56.390;-3.266;2023-01-31T07:45:06;2.38;;;1.00;;
23280;SDS011;11809;56.390;-3.266;2023-01-31T07:47:49;5.32;;;1.23;;
23280;SDS011;11809;56.390;-3.266;2023-01-31T07:50:16;5.55;;;1.00;;
23280;SDS011;11809;56.390;-3.266;2023-01-31T07:52:43;4.00;;;1.08;;
23280;SDS011;11809;56.390;-3.266;2023-01-31T07:55:10;3.03;;;0.93;;
23280;SDS011;11809;56.390;-3.266;2023-01-31T07:57:37;2.58;;;0.88;;
23280;SDS011;11809;56.390;-3.266;2023-01-31T08:00:06;3.85;;;0.80;;
23280;SDS011;11809;56.390;-3.266;2023-01-31T08:02:53;3.13;;;1.00;;
23280;SDS011;11809;56.390;-3.266;2023-01-31T08:05:39;3.58;;;1.00;;
23280;SDS011;11809;56.390;-3.266;2023-01-31T08:08:06;2.00;;;0.93;;
23280;SDS011;11809;56.390;-3.266;2023-01-31T08:10:36;4.57;;;1.40;;
23280;SDS011;11809;56.390;-3.266;2023-01-31T08:13:03;2.35;;;0.70;;
23280;SDS011;11809;56.390;-3.266;2023-01-31T08:15:32;2.45;;;0.68;;
23280;SDS011;11809;56.390;-3.266;2023-01-31T08:17:59;4.72;;;1.10;;
23280;SDS011;11809;56.390;-3.266;2023-01-31T08:20:28;7.38;;;0.90;;
23280;SDS011;11809;56.390;-3.266;2023-01-31T08:22:55;10.13;;;1.30;;
23280;SDS011;11809;56.390;-3.266;2023-01-31T08:25:26;5.88;;;0.90;;
23280;SDS011;11809;56.390;-3.266;2023-01-31T08:27:57;7.57;;;1.02;;
23280;SDS011;11809;56.390;-3.266;2023-01-31T08:30:26;8.38;;;1.15;;
23280;SDS011;11809;56.390;-3.266;2023-01-31T08:32:55;11.00;;;1.63;;
23280;SDS011;11809;56.390;-3.266;2023-01-31T08:35:23;31.98;;;2.63;;
23280;SDS011;11809;56.390;-3.266;2023-01-31T08:37:51;18.98;;;1.52;;
23280;SDS011;11809;56.390;-3.266;2023-01-31T08:40:32;15.18;;;1.33;;
23280;SDS011;11809;56.390;-3.266;2023-01-31T08:42:59;5.38;;;0.73;;
23280;SDS011;11809;56.390;-3.266;2023-01-31T08:45:27;8.25;;;1.10;;
23280;SDS011;11809;56.390;-3.266;2023-01-31T08:47:56;10.88;;;1.00;;
23280;SDS011;11809;56.390;-3.266;2023-01-31T08:50:27;5.60;;;0.77;;
23280;SDS011;11809;56.390;-3.266;2023-01-31T08:52:56;8.50;;;0.98;;
23280;SDS011;11809;56.390;-3.266;2023-01-31T08:55:25;13.32;;;1.55;;
23280;SDS011;11809;56.390;-3.266;2023-01-31T08:57:53;7.35;;;1.08;;
23280;SDS011;11809;56.390;-3.266;2023-01-31T09:00:25;15.25;;;1.17;;
23280;SDS011;11809;56.390;-3.266;2023-01-31T09:02:56;6.75;;;0.95;;
23280;SDS011;11809;56.390;-3.266;2023-01-31T09:05:26;7.78;;;1.13;;
23280;SDS011;11809;56.390;-3.266;2023-01-31T09:07:55;7.97;;;1.45;;
23280;SDS011;11809;56.390;-3.266;2023-01-31T09:10:22;5.10;;;0.70;;
23280;SDS011;11809;56.390;-3.266;2023-01-31T09:12:50;6.10;;;1.17;;
23280;SDS011;11809;56.390;-3.266;2023-01-31T09:15:17;15.10;;;1.15;;
23280;SDS011;11809;56.390;-3.266;2023-01-31T09:17:45;27.10;;;1.98;;
23280;SDS011;11809;56.390;-3.266;2023-01-31T09:20:12;46.47;;;3.53;;
23280;SDS011;11809;56.390;-3.266;2023-01-31T09:22:39;20.23;;;2.08;;
23280;SDS011;11809;56.390;-3.266;2023-01-31T09:25:06;41.58;;;2.60;;
23280;SDS011;11809;56.390;-3.266;2023-01-31T09:27:34;25.23;;;1.90;;
23280;SDS011;11809;56.390;-3.266;2023-01-31T09:30:04;64.03;;;3.88;;
23280;SDS011;11809;56.390;-3.266;2023-01-31T09:32:32;24.40;;;1.88;;
23280;SDS011;11809;56.390;-3.266;2023-01-31T09:34:59;16.85;;;1.60;;
23280;SDS011;11809;56.390;-3.266;2023-01-31T09:37:29;14.80;;;1.73;;
23280;SDS011;11809;56.390;-3.266;2023-01-31T09:39:57;17.58;;;1.40;;
23280;SDS011;11809;56.390;-3.266;2023-01-31T09:42:26;5.18;;;1.10;;
23280;SDS011;11809;56.390;-3.266;2023-01-31T09:45:01;7.65;;;1.00;;
23280;SDS011;11809;56.390;-3.266;2023-01-31T09:47:37;9.63;;;1.10;;
23280;SDS011;11809;56.390;-3.266;2023-01-31T09:52:56;8.52;;;1.08;;
23280;SDS011;11809;56.390;-3.266;2023-01-31T09:55:26;27.25;;;2.47;;
23280;SDS011;11809;56.390;-3.266;2023-01-31T10:00:45;54.58;;;3.47;;
23280;SDS011;11809;56.390;-3.266;2023-01-31T10:06:17;24.08;;;2.22;;
23280;SDS011;11809;56.390;-3.266;2023-01-31T10:11:36;22.92;;;2.15;;
23280;SDS011;11809;56.390;-3.266;2023-01-31T10:14:12;35.88;;;3.15;;
23280;SDS011;11809;56.390;-3.266;2023-01-31T10:17:09;30.90;;;3.03;;
23280;SDS011;11809;56.390;-3.266;2023-01-31T10:20:02;15.98;;;1.98;;
23280;SDS011;11809;56.390;-3.266;2023-01-31T10:39:30;7.60;;;1.10;;
23280;SDS011;11809;56.390;-3.266;2023-01-31T10:42:16;8.48;;;1.50;;
23280;SDS011;11809;56.390;-3.266;2023-01-31T10:47:36;9.55;;;0.93;;
23280;SDS011;11809;56.390;-3.266;2023-01-31T10:50:13;10.48;;;1.10;;
23280;SDS011;11809;56.390;-3.266;2023-01-31T10:52:57;5.82;;;0.60;;
23280;SDS011;11809;56.390;-3.266;2023-01-31T10:58:36;4.32;;;0.68;;
23280;SDS011;11809;56.390;-3.266;2023-01-31T11:01:05;3.20;;;0.70;;
23280;SDS011;11809;56.390;-3.266;2023-01-31T11:03:44;5.40;;;0.65;;
23280;SDS011;11809;56.390;-3.266;2023-01-31T11:06:16;6.75;;;0.95;;
23280;SDS011;11809;56.390;-3.266;2023-01-31T11:11:24;10.93;;;0.93;;
23280;SDS011;11809;56.390;-3.266;2023-01-31T11:16:27;4.88;;;0.85;;
23280;SDS011;11809;56.390;-3.266;2023-01-31T11:18:58;5.18;;;1.83;;
23280;SDS011;11809;56.390;-3.266;2023-01-31T11:21:29;14.15;;;1.42;;
23280;SDS011;11809;56.390;-3.266;2023-01-31T11:24:02;6.57;;;1.02;;
23280;SDS011;11809;56.390;-3.266;2023-01-31T11:26:37;38.28;;;11.30;;
23280;SDS011;11809;56.390;-3.266;2023-01-31T11:29:06;36.15;;;16.42;;
23280;SDS011;11809;56.390;-3.266;2023-01-31T11:31:42;30.20;;;13.70;;
23280;SDS011;11809;56.390;-3.266;2023-01-31T11:36:46;46.17;;;9.95;;
23280;SDS011;11809;56.390;-3.266;2023-01-31T11:42:10;20.42;;;8.45;;
23280;SDS011;11809;56.390;-3.266;2023-01-31T11:44:58;36.95;;;7.45;;
23280;SDS011;11809;56.390;-3.266;2023-01-31T11:47:47;17.35;;;5.75;;
23280;SDS011;11809;56.390;-3.266;2023-01-31T11:52:53;21.88;;;5.20;;
23280;SDS011;11809;56.390;-3.266;2023-01-31T11:55:23;17.20;;;4.68;;
23280;SDS011;11809;56.390;-3.266;2023-01-31T11:57:57;33.80;;;4.45;;
23280;SDS011;11809;56.390;-3.266;2023-01-31T12:00:27;20.90;;;2.45;;
23280;SDS011;11809;56.390;-3.266;2023-01-31T12:03:00;17.17;;;2.95;;
23280;SDS011;11809;56.390;-3.266;2023-01-31T12:05:41;15.27;;;2.95;;
23280;SDS011;11809;56.390;-3.266;2023-01-31T12:10:58;8.18;;;1.70;;
23280;SDS011;11809;56.390;-3.266;2023-01-31T12:13:30;5.68;;;1.75;;
23280;SDS011;11809;56.390;-3.266;2023-01-31T12:15:58;4.28;;;1.48;;
23280;SDS011;11809;56.390;-3.266;2023-01-31T12:26:48;8.93;;;1.30;;
23280;SDS011;11809;56.390;-3.266;2023-01-31T12:35:56;10.25;;;1.58;;
23280;SDS011;11809;56.390;-3.266;2023-01-31T12:41:25;28.40;;;2.58;;
23280;SDS011;11809;56.390;-3.266;2023-01-31T12:52:32;76.05;;;25.77;;
23280;SDS011;11809;56.390;-3.266;2023-01-31T12:55:15;100.88;;;41.70;;
23280;SDS011;11809;56.390;-3.266;2023-01-31T13:01:00;80.03;;;38.05;;
23280;SDS011;11809;56.390;-3.266;2023-01-31T13:03:38;76.15;;;34.50;;
23280;SDS011;11809;56.390;-3.266;2023-01-31T13:06:26;52.13;;;19.05;;
23280;SDS011;11809;56.390;-3.266;2023-01-31T13:09:02;47.13;;;24.27;;
23280;SDS011;11809;56.390;-3.266;2023-01-31T13:11:39;53.10;;;20.23;;
23280;SDS011;11809;56.390;-3.266;2023-01-31T13:14:14;38.72;;;19.58;;
23280;SDS011;11809;56.390;-3.266;2023-01-31T13:16:46;39.72;;;16.00;;
23280;SDS011;11809;56.390;-3.266;2023-01-31T13:19:26;25.88;;;12.23;;
23280;SDS011;11809;56.390;-3.266;2023-01-31T13:21:58;26.23;;;11.45;;
23280;SDS011;11809;56.390;-3.266;2023-01-31T13:24:31;21.25;;;8.70;;
23280;SDS011;11809;56.390;-3.266;2023-01-31T13:27:05;22.27;;;7.82;;
23280;SDS011;11809;56.390;-3.266;2023-01-31T13:29:43;13.95;;;6.93;;
23280;SDS011;11809;56.390;-3.266;2023-01-31T13:32:20;12.98;;;5.60;;
23280;SDS011;11809;56.390;-3.266;2023-01-31T13:35:04;16.35;;;5.65;;
23280;SDS011;11809;56.390;-3.266;2023-01-31T13:37:45;10.38;;;5.28;;
23280;SDS011;11809;56.390;-3.266;2023-01-31T13:40:27;10.63;;;4.53;;
23280;SDS011;11809;56.390;-3.266;2023-01-31T13:42:59;11.88;;;4.32;;
23280;SDS011;11809;56.390;-3.266;2023-01-31T13:45:35;10.85;;;3.20;;
23280;SDS011;11809;56.390;-3.266;2023-01-31T13:48:16;25.33;;;4.18;;
23280;SDS011;11809;56.390;-3.266;2023-01-31T13:51:00;34.03;;;3.30;;
23280;SDS011;11809;56.390;-3.266;2023-01-31T13:53:31;13.35;;;2.97;;
23280;SDS011;11809;56.390;-3.266;2023-01-31T13:56:13;5.05;;;2.47;;
23280;SDS011;11809;56.390;-3.266;2023-01-31T13:58:49;10.05;;;2.20;;
23280;SDS011;11809;56.390;-3.266;2023-01-31T14:01:21;6.38;;;2.45;;
23280;SDS011;11809;56.390;-3.266;2023-01-31T14:09:23;7.90;;;2.40;;
23280;SDS011;11809;56.390;-3.266;2023-01-31T14:11:59;14.77;;;2.20;;
23280;SDS011;11809;56.390;-3.266;2023-01-31T14:14:51;10.20;;;1.90;;
23280;SDS011;11809;56.390;-3.266;2023-01-31T14:25:01;7.63;;;1.38;;
23280;SDS011;11809;56.390;-3.266;2023-01-31T14:27:33;16.95;;;1.60;;
23280;SDS011;11809;56.390;-3.266;2023-01-31T14:55:07;21.98;;;1.75;;
23280;SDS011;11809;56.390;-3.266;2023-01-31T14:57:54;27.45;;;2.67;;
23280;SDS011;11809;56.390;-3.266;2023-01-31T15:00:34;20.13;;;2.40;;
23280;SDS011;11809;56.390;-3.266;2023-01-31T15:03:23;17.52;;;2.05;;
23280;SDS011;11809;56.390;-3.266;2023-01-31T15:05:55;19.20;;;1.58;;
23280;SDS011;11809;56.390;-3.266;2023-01-31T15:08:36;25.40;;;1.83;;
23280;SDS011;11809;56.390;-3.266;2023-01-31T15:14:19;16.65;;;2.03;;
23280;SDS011;11809;56.390;-3.266;2023-01-31T15:20:15;71.97;;;4.78;;
23280;SDS011;11809;56.390;-3.266;2023-01-31T15:22:45;28.80;;;1.80;;
23280;SDS011;11809;56.390;-3.266;2023-01-31T15:25:19;13.52;;;1.17;;
23280;SDS011;11809;56.390;-3.266;2023-01-31T15:27:54;14.57;;;1.08;;
23280;SDS011;11809;56.390;-3.266;2023-01-31T15:30:23;23.35;;;1.45;;
23280;SDS011;11809;56.390;-3.266;2023-01-31T15:35:26;18.45;;;1.27;;
23280;SDS011;11809;56.390;-3.266;2023-01-31T15:38:18;20.80;;;1.63;;
23280;SDS011;11809;56.390;-3.266;2023-01-31T15:44:22;96.40;;;8.07;;
23280;SDS011;11809;56.390;-3.266;2023-01-31T15:46:51;89.15;;;6.18;;
23280;SDS011;11809;56.390;-3.266;2023-01-31T15:49:30;71.95;;;4.63;;
23280;SDS011;11809;56.390;-3.266;2023-01-31T15:52:13;66.63;;;3.67;;
23280;SDS011;11809;56.390;-3.266;2023-01-31T15:55:02;33.20;;;2.42;;
23280;SDS011;11809;56.390;-3.266;2023-01-31T15:57:53;24.42;;;3.00;;
23280;SDS011;11809;56.390;-3.266;2023-01-31T16:00:36;28.35;;;2.67;;
23280;SDS011;11809;56.390;-3.266;2023-01-31T16:03:04;26.40;;;2.70;;
23280;SDS011;11809;56.390;-3.266;2023-01-31T16:05:34;24.30;;;2.30;;
23280;SDS011;11809;56.390;-3.266;2023-01-31T16:08:25;15.65;;;2.08;;
23280;SDS011;11809;56.390;-3.266;2023-01-31T16:10:55;16.95;;;2.42;;
23280;SDS011;11809;56.390;-3.266;2023-01-31T16:13:23;12.93;;;2.65;;
23280;SDS011;11809;56.390;-3.266;2023-01-31T16:15:52;16.27;;;2.75;;
23280;SDS011;11809;56.390;-3.266;2023-01-31T16:18:19;13.57;;;2.40;;
23280;SDS011;11809;56.390;-3.266;2023-01-31T16:20:47;11.60;;;2.20;;
23280;SDS011;11809;56.390;-3.266;2023-01-31T16:28:40;12.63;;;1.90;;
23280;SDS011;11809;56.390;-3.266;2023-01-31T16:31:11;4.05;;;1.23;;
23280;SDS011;11809;56.390;-3.266;2023-01-31T16:33:47;22.35;;;1.98;;
23280;SDS011;11809;56.390;-3.266;2023-01-31T16:36:20;16.15;;;1.85;;
23280;SDS011;11809;56.390;-3.266;2023-01-31T16:38:57;8.88;;;2.40;;
23280;SDS011;11809;56.390;-3.266;2023-01-31T16:44:09;30.38;;;2.90;;
23280;SDS011;11809;56.390;-3.266;2023-01-31T16:46:40;36.15;;;2.20;;
23280;SDS011;11809;56.390;-3.266;2023-01-31T16:49:22;14.77;;;1.75;;
23280;SDS011;11809;56.390;-3.266;2023-01-31T16:51:57;15.45;;;1.73;;
23280;SDS011;11809;56.390;-3.266;2023-01-31T16:54:48;18.88;;;1.85;;
23280;SDS011;11809;56.390;-3.266;2023-01-31T16:57:21;13.63;;;2.08;;
23280;SDS011;11809;56.390;-3.266;2023-01-31T16:59:52;12.50;;;1.60;;
23280;SDS011;11809;56.390;-3.266;2023-01-31T17:02:21;13.85;;;1.50;;
23280;SDS011;11809;56.390;-3.266;2023-01-31T17:04:52;14.30;;;1.48;;
23280;SDS011;11809;56.390;-3.266;2023-01-31T17:09:58;7.15;;;1.27;;
23280;SDS011;11809;56.390;-3.266;2023-01-31T17:12:28;8.07;;;1.08;;
23280;SDS011;11809;56.390;-3.266;2023-01-31T17:14:56;10.23;;;1.05;;
23280;SDS011;11809;56.390;-3.266;2023-01-31T17:17:29;7.07;;;1.20;;
23280;SDS011;11809;56.390;-3.266;2023-01-31T17:20:03;6.57;;;0.90;;
23280;SDS011;11809;56.390;-3.266;2023-01-31T17:22:30;7.78;;;1.05;;
23280;SDS011;11809;56.390;-3.266;2023-01-31T17:24:57;25.35;;;1.55;;
23280;SDS011;11809;56.390;-3.266;2023-01-31T17:27:24;19.20;;;1.73;;
23280;SDS011;11809;56.390;-3.266;2023-01-31T17:29:52;16.13;;;1.10;;
23280;SDS011;11809;56.390;-3.266;2023-01-31T17:32:19;12.32;;;0.98;;
23280;SDS011;11809;56.390;-3.266;2023-01-31T17:34:46;23.33;;;1.83;;
23280;SDS011;11809;56.390;-3.266;2023-01-31T17:37:14;13.95;;;1.05;;
23280;SDS011;11809;56.390;-3.266;2023-01-31T17:39:48;11.38;;;0.90;;
23280;SDS011;11809;56.390;-3.266;2023-01-31T17:42:16;8.75;;;1.23;;
23280;SDS011;11809;56.390;-3.266;2023-01-31T17:44:45;10.70;;;0.90;;
23280;SDS011;11809;56.390;-3.266;2023-01-31T17:47:15;12.23;;;1.13;;
23280;SDS011;11809;56.390;-3.266;2023-01-31T17:49:43;18.40;;;1.87;;
23280;SDS011;11809;56.390;-3.266;2023-01-31T17:52:11;39.03;;;2.88;;
23280;SDS011;11809;56.390;-3.266;2023-01-31T17:54:38;12.18;;;1.45;;
23280;SDS011;11809;56.390;-3.266;2023-01-31T17:57:05;49.95;;;4.03;;
23280;SDS011;11809;56.390;-3.266;2023-01-31T17:59:32;28.42;;;2.38;;
23280;SDS011;11809;56.390;-3.266;2023-01-31T18:02:03;51.37;;;3.77;;
23280;SDS011;11809;56.390;-3.266;2023-01-31T18:04:30;28.17;;;2.75;;
23280;SDS011;11809;56.390;-3.266;2023-01-31T18:06:57;15.20;;;1.38;;
23280;SDS011;11809;56.390;-3.266;2023-01-31T18:09:25;18.92;;;1.30;;
23280;SDS011;11809;56.390;-3.266;2023-01-31T18:11:52;32.83;;;3.08;;
23280;SDS011;11809;56.390;-3.266;2023-01-31T18:14:19;73.93;;;6.80;;
23280;SDS011;11809;56.390;-3.266;2023-01-31T18:16:49;25.33;;;7.88;;